sensor_id;sensor_type;location;lat;lon;timestamp;temperature;humidity
27258;DHT22;62045;49.986;8.672;2022-07-29T00:03:03;26.10;38.50
27258;DHT22;62045;49.986;8.672;2022-07-29T00:08:04;26.10;38.40
27258;DHT22;62045;49.986;8.672;2022-07-29T00:13:06;26.10;38.40
27258;DHT22;62045;49.986;8.672;2022-07-29T00:18:07;26.10;38.40
27258;DHT22;62045;49.986;8.672;2022-07-29T00:23:08;26.00;38.30
27258;DHT22;62045;49.986;8.672;2022-07-29T00:28:10;26.00;38.40
27258;DHT22;62045;49.986;8.672;2022-07-29T00:33:11;26.00;38.40
27258;DHT22;62045;49.986;8.672;2022-07-29T00:38:13;26.00;38.40
27258;DHT22;62045;49.986;8.672;2022-07-29T00:43:17;26.00;38.50
27258;DHT22;62045;49.986;8.672;2022-07-29T00:48:18;26.00;38.60
27258;DHT22;62045;49.986;8.672;2022-07-29T00:53:20;25.90;38.60
27258;DHT22;62045;49.986;8.672;2022-07-29T00:58:23;25.90;38.70
27258;DHT22;62045;49.986;8.672;2022-07-29T01:03:24;25.90;38.80
27258;DHT22;62045;49.986;8.672;2022-07-29T01:08:25;25.90;38.80
27258;DHT22;62045;49.986;8.672;2022-07-29T01:13:28;25.90;38.90
27258;DHT22;62045;49.986;8.672;2022-07-29T01:18:32;25.90;38.90
27258;DHT22;62045;49.986;8.672;2022-07-29T01:23:52;25.90;39.00
27258;DHT22;62045;49.986;8.672;2022-07-29T01:29:05;25.80;38.70
27258;DHT22;62045;49.986;8.672;2022-07-29T01:34:08;25.90;38.70
27258;DHT22;62045;49.986;8.672;2022-07-29T01:39:16;25.90;38.70
27258;DHT22;62045;49.986;8.672;2022-07-29T01:44:22;25.90;38.60
27258;DHT22;62045;49.986;8.672;2022-07-29T01:49:28;25.90;38.60
27258;DHT22;62045;49.986;8.672;2022-07-29T01:54:34;25.90;38.60
27258;DHT22;62045;49.986;8.672;2022-07-29T01:59:37;25.90;38.60
27258;DHT22;62045;49.986;8.672;2022-07-29T02:04:38;25.90;38.50
27258;DHT22;62045;49.986;8.672;2022-07-29T02:09:41;25.90;38.50
27258;DHT22;62045;49.986;8.672;2022-07-29T02:14:47;25.90;38.50
27258;DHT22;62045;49.986;8.672;2022-07-29T02:19:49;25.90;38.50
27258;DHT22;62045;49.986;8.672;2022-07-29T02:24:51;25.90;38.50
27258;DHT22;62045;49.986;8.672;2022-07-29T02:29:55;25.90;38.50
27258;DHT22;62045;49.986;8.672;2022-07-29T02:34:59;25.90;38.60
27258;DHT22;62045;49.986;8.672;2022-07-29T02:40:02;25.90;38.70
27258;DHT22;62045;49.986;8.672;2022-07-29T02:45:06;25.90;38.80
27258;DHT22;62045;49.986;8.672;2022-07-29T02:50:11;25.80;38.80
27258;DHT22;62045;49.986;8.672;2022-07-29T02:55:16;25.90;38.90
27258;DHT22;62045;49.986;8.672;2022-07-29T03:00:21;25.80;38.90
27258;DHT22;62045;49.986;8.672;2022-07-29T03:05:22;25.80;38.90
27258;DHT22;62045;49.986;8.672;2022-07-29T03:10:25;25.80;38.90
27258;DHT22;62045;49.986;8.672;2022-07-29T03:15:28;25.80;39.00
27258;DHT22;62045;49.986;8.672;2022-07-29T03:20:29;25.80;39.00
27258;DHT22;62045;49.986;8.672;2022-07-29T03:25:30;25.70;38.90
27258;DHT22;62045;49.986;8.672;2022-07-29T03:30:33;25.80;39.00
27258;DHT22;62045;49.986;8.672;2022-07-29T03:35:33;25.70;39.00
27258;DHT22;62045;49.986;8.672;2022-07-29T03:40:38;25.70;39.00
27258;DHT22;62045;49.986;8.672;2022-07-29T03:45:43;25.70;39.10
27258;DHT22;62045;49.986;8.672;2022-07-29T03:50:45;25.70;39.10
27258;DHT22;62045;49.986;8.672;2022-07-29T03:55:50;25.70;39.10
27258;DHT22;62045;49.986;8.672;2022-07-29T04:00:55;25.70;39.10
27258;DHT22;62045;49.986;8.672;2022-07-29T04:05:59;25.70;39.00
27258;DHT22;62045;49.986;8.672;2022-07-29T04:11:01;25.70;39.00
27258;DHT22;62045;49.986;8.672;2022-07-29T04:16:04;25.80;39.00
27258;DHT22;62045;49.986;8.672;2022-07-29T04:21:04;25.70;38.90
27258;DHT22;62045;49.986;8.672;2022-07-29T04:26:05;25.70;38.90
27258;DHT22;62045;49.986;8.672;2022-07-29T04:31:08;25.70;38.90
27258;DHT22;62045;49.986;8.672;2022-07-29T04:36:08;25.80;38.90
27258;DHT22;62045;49.986;8.672;2022-07-29T04:41:09;25.80;38.90
27258;DHT22;62045;49.986;8.672;2022-07-29T04:46:12;25.80;38.90
27258;DHT22;62045;49.986;8.672;2022-07-29T04:51:12;25.80;39.10
27258;DHT22;62045;49.986;8.672;2022-07-29T04:56:13;25.70;39.00
27258;DHT22;62045;49.986;8.672;2022-07-29T05:01:15;25.70;39.10
27258;DHT22;62045;49.986;8.672;2022-07-29T05:06:16;25.70;39.10
27258;DHT22;62045;49.986;8.672;2022-07-29T05:11:17;25.70;39.20
27258;DHT22;62045;49.986;8.672;2022-07-29T05:16:19;25.70;39.20
27258;DHT22;62045;49.986;8.672;2022-07-29T05:21:20;25.60;39.20
27258;DHT22;62045;49.986;8.672;2022-07-29T05:26:21;25.60;39.20
27258;DHT22;62045;49.986;8.672;2022-07-29T05:31:23;25.60;39.40
27258;DHT22;62045;49.986;8.672;2022-07-29T05:36:24;25.60;39.40
27258;DHT22;62045;49.986;8.672;2022-07-29T05:41:25;25.60;39.40
27258;DHT22;62045;49.986;8.672;2022-07-29T05:46:27;25.60;39.50
27258;DHT22;62045;49.986;8.672;2022-07-29T05:51:28;25.60;39.60
27258;DHT22;62045;49.986;8.672;2022-07-29T05:56:29;25.60;39.60
27258;DHT22;62045;49.986;8.672;2022-07-29T06:01:31;25.50;39.60
27258;DHT22;62045;49.986;8.672;2022-07-29T06:06:32;25.50;39.60
27258;DHT22;62045;49.986;8.672;2022-07-29T06:11:33;25.50;39.60
27258;DHT22;62045;49.986;8.672;2022-07-29T06:16:35;25.50;39.50
27258;DHT22;62045;49.986;8.672;2022-07-29T06:21:36;25.60;39.40
27258;DHT22;62045;49.986;8.672;2022-07-29T06:26:37;25.60;39.40
27258;DHT22;62045;49.986;8.672;2022-07-29T06:31:39;25.60;39.30
27258;DHT22;62045;49.986;8.672;2022-07-29T06:36:40;25.60;39.30
27258;DHT22;62045;49.986;8.672;2022-07-29T06:41:41;25.70;39.30
27258;DHT22;62045;49.986;8.672;2022-07-29T06:46:45;25.70;39.30
27258;DHT22;62045;49.986;8.672;2022-07-29T06:51:46;25.70;39.30
27258;DHT22;62045;49.986;8.672;2022-07-29T06:56:47;25.70;39.20
27258;DHT22;62045;49.986;8.672;2022-07-29T07:01:49;25.70;39.20
27258;DHT22;62045;49.986;8.672;2022-07-29T07:06:50;25.70;39.20
27258;DHT22;62045;49.986;8.672;2022-07-29T07:11:51;25.80;39.10
27258;DHT22;62045;49.986;8.672;2022-07-29T07:16:53;25.70;39.10
27258;DHT22;62045;49.986;8.672;2022-07-29T07:21:54;25.70;39.10
27258;DHT22;62045;49.986;8.672;2022-07-29T07:26:55;25.70;39.10
27258;DHT22;62045;49.986;8.672;2022-07-29T07:31:57;25.70;39.70
27258;DHT22;62045;49.986;8.672;2022-07-29T07:36:58;25.70;39.70
27258;DHT22;62045;49.986;8.672;2022-07-29T07:41:59;25.70;39.10
27258;DHT22;62045;49.986;8.672;2022-07-29T07:47:01;25.70;39.10
27258;DHT22;62045;49.986;8.672;2022-07-29T07:52:02;25.70;39.20
27258;DHT22;62045;49.986;8.672;2022-07-29T07:57:03;25.60;39.10
27258;DHT22;62045;49.986;8.672;2022-07-29T08:02:06;25.60;39.10
27258;DHT22;62045;49.986;8.672;2022-07-29T08:07:07;25.70;39.20
27258;DHT22;62045;49.986;8.672;2022-07-29T08:12:08;25.60;39.10
27258;DHT22;62045;49.986;8.672;2022-07-29T08:17:10;25.70;39.20
27258;DHT22;62045;49.986;8.672;2022-07-29T08:22:11;25.70;39.20
27258;DHT22;62045;49.986;8.672;2022-07-29T08:27:13;25.60;39.10
27258;DHT22;62045;49.986;8.672;2022-07-29T08:32:15;25.60;40.00
27258;DHT22;62045;49.986;8.672;2022-07-29T08:37:16;25.80;42.00
27258;DHT22;62045;49.986;8.672;2022-07-29T08:42:17;25.90;40.50
27258;DHT22;62045;49.986;8.672;2022-07-29T08:47:19;26.00;39.90
27258;DHT22;62045;49.986;8.672;2022-07-29T08:52:21;26.10;39.70
27258;DHT22;62045;49.986;8.672;2022-07-29T08:57:25;26.10;39.50
27258;DHT22;62045;49.986;8.672;2022-07-29T09:02:30;26.10;39.30
27258;DHT22;62045;49.986;8.672;2022-07-29T09:07:33;26.10;39.30
27258;DHT22;62045;49.986;8.672;2022-07-29T09:12:34;26.10;39.20
27258;DHT22;62045;49.986;8.672;2022-07-29T09:17:44;26.10;39.20
27258;DHT22;62045;49.986;8.672;2022-07-29T09:22:46;26.10;39.20
27258;DHT22;62045;49.986;8.672;2022-07-29T09:27:50;26.10;39.20
27258;DHT22;62045;49.986;8.672;2022-07-29T09:32:59;26.10;39.20
27258;DHT22;62045;49.986;8.672;2022-07-29T09:38:10;26.10;39.20
27258;DHT22;62045;49.986;8.672;2022-07-29T09:43:12;26.10;39.20
27258;DHT22;62045;49.986;8.672;2022-07-29T09:48:16;26.20;39.30
27258;DHT22;62045;49.986;8.672;2022-07-29T09:53:30;26.20;39.30
27258;DHT22;62045;49.986;8.672;2022-07-29T09:58:32;26.20;39.30
27258;DHT22;62045;49.986;8.672;2022-07-29T10:03:50;26.20;39.40
27258;DHT22;62045;49.986;8.672;2022-07-29T10:08:52;26.20;39.60
27258;DHT22;62045;49.986;8.672;2022-07-29T10:13:53;26.20;39.70
27258;DHT22;62045;49.986;8.672;2022-07-29T10:18:56;26.20;39.80
27258;DHT22;62045;49.986;8.672;2022-07-29T10:23:57;26.20;40.00
27258;DHT22;62045;49.986;8.672;2022-07-29T10:29:00;26.20;40.10
27258;DHT22;62045;49.986;8.672;2022-07-29T10:34:06;26.20;40.30
27258;DHT22;62045;49.986;8.672;2022-07-29T10:39:19;26.20;40.30
27258;DHT22;62045;49.986;8.672;2022-07-29T10:44:24;26.20;40.40
27258;DHT22;62045;49.986;8.672;2022-07-29T10:49:27;26.10;41.20
27258;DHT22;62045;49.986;8.672;2022-07-29T10:54:47;26.10;40.70
27258;DHT22;62045;49.986;8.672;2022-07-29T10:59:49;26.20;40.90
27258;DHT22;62045;49.986;8.672;2022-07-29T11:05:01;26.10;41.10
27258;DHT22;62045;49.986;8.672;2022-07-29T11:10:22;26.20;41.20
27258;DHT22;62045;49.986;8.672;2022-07-29T11:15:24;26.20;41.40
27258;DHT22;62045;49.986;8.672;2022-07-29T11:20:39;26.20;41.40
27258;DHT22;62045;49.986;8.672;2022-07-29T11:25:41;26.20;41.60
27258;DHT22;62045;49.986;8.672;2022-07-29T11:30:48;26.30;41.50
27258;DHT22;62045;49.986;8.672;2022-07-29T11:41:22;26.30;41.40
27258;DHT22;62045;49.986;8.672;2022-07-29T11:46:44;26.40;41.40
27258;DHT22;62045;49.986;8.672;2022-07-29T11:51:50;26.40;41.40
27258;DHT22;62045;49.986;8.672;2022-07-29T11:56:53;26.40;41.40
27258;DHT22;62045;49.986;8.672;2022-07-29T12:01:54;26.50;41.40
27258;DHT22;62045;49.986;8.672;2022-07-29T12:06:56;26.50;41.40
27258;DHT22;62045;49.986;8.672;2022-07-29T12:11:59;26.50;41.30
27258;DHT22;62045;49.986;8.672;2022-07-29T12:17:00;26.60;41.30
27258;DHT22;62045;49.986;8.672;2022-07-29T12:22:01;26.60;41.20
27258;DHT22;62045;49.986;8.672;2022-07-29T12:27:03;26.60;41.30
27258;DHT22;62045;49.986;8.672;2022-07-29T12:32:04;26.60;41.30
27258;DHT22;62045;49.986;8.672;2022-07-29T12:37:05;26.70;41.30
27258;DHT22;62045;49.986;8.672;2022-07-29T12:42:12;26.60;41.10
27258;DHT22;62045;49.986;8.672;2022-07-29T12:47:13;26.70;41.10
27258;DHT22;62045;49.986;8.672;2022-07-29T12:52:24;26.70;41.10
27258;DHT22;62045;49.986;8.672;2022-07-29T12:57:30;26.70;41.00
27258;DHT22;62045;49.986;8.672;2022-07-29T13:02:31;26.70;40.90
27258;DHT22;62045;49.986;8.672;2022-07-29T13:07:34;26.70;40.90
27258;DHT22;62045;49.986;8.672;2022-07-29T13:12:36;26.70;40.90
27258;DHT22;62045;49.986;8.672;2022-07-29T13:17:40;26.70;40.90
27258;DHT22;62045;49.986;8.672;2022-07-29T13:22:41;26.70;40.90
27258;DHT22;62045;49.986;8.672;2022-07-29T13:27:44;26.60;40.80
27258;DHT22;62045;49.986;8.672;2022-07-29T13:32:45;26.60;40.80
27258;DHT22;62045;49.986;8.672;2022-07-29T13:37:45;26.60;40.80
27258;DHT22;62045;49.986;8.672;2022-07-29T13:42:48;26.60;40.90
27258;DHT22;62045;49.986;8.672;2022-07-29T13:47:49;26.60;43.40
27258;DHT22;62045;49.986;8.672;2022-07-29T13:52:50;26.60;43.30
27258;DHT22;62045;49.986;8.672;2022-07-29T13:57:52;26.60;43.00
27258;DHT22;62045;49.986;8.672;2022-07-29T14:02:53;26.60;42.80
27258;DHT22;62045;49.986;8.672;2022-07-29T14:07:53;26.70;42.70
27258;DHT22;62045;49.986;8.672;2022-07-29T14:12:56;26.70;42.50
27258;DHT22;62045;49.986;8.672;2022-07-29T14:17:56;26.70;42.40
27258;DHT22;62045;49.986;8.672;2022-07-29T14:22:57;26.70;42.50
27258;DHT22;62045;49.986;8.672;2022-07-29T14:28:00;26.70;42.30
27258;DHT22;62045;49.986;8.672;2022-07-29T14:33:01;26.70;42.20
27258;DHT22;62045;49.986;8.672;2022-07-29T14:38:01;26.70;42.10
27258;DHT22;62045;49.986;8.672;2022-07-29T14:43:04;26.70;42.00
27258;DHT22;62045;49.986;8.672;2022-07-29T14:48:05;26.70;41.90
27258;DHT22;62045;49.986;8.672;2022-07-29T14:53:06;26.80;41.80
27258;DHT22;62045;49.986;8.672;2022-07-29T14:58:09;26.80;41.70
27258;DHT22;62045;49.986;8.672;2022-07-29T15:03:10;26.80;41.60
27258;DHT22;62045;49.986;8.672;2022-07-29T15:08:11;26.80;41.50
27258;DHT22;62045;49.986;8.672;2022-07-29T15:13:13;26.90;41.50
27258;DHT22;62045;49.986;8.672;2022-07-29T15:18:14;26.90;41.50
27258;DHT22;62045;49.986;8.672;2022-07-29T15:23:15;26.90;41.40
27258;DHT22;62045;49.986;8.672;2022-07-29T15:28:17;26.90;41.40
27258;DHT22;62045;49.986;8.672;2022-07-29T15:33:18;26.90;41.40
27258;DHT22;62045;49.986;8.672;2022-07-29T15:38:19;26.90;41.40
27258;DHT22;62045;49.986;8.672;2022-07-29T15:43:21;26.90;41.50
27258;DHT22;62045;49.986;8.672;2022-07-29T15:48:23;26.90;41.80
27258;DHT22;62045;49.986;8.672;2022-07-29T15:53:24;26.90;41.60
27258;DHT22;62045;49.986;8.672;2022-07-29T15:58:26;26.80;41.60
27258;DHT22;62045;49.986;8.672;2022-07-29T16:03:28;26.80;41.60
27258;DHT22;62045;49.986;8.672;2022-07-29T16:08:29;26.80;41.50
27258;DHT22;62045;49.986;8.672;2022-07-29T16:13:31;26.80;41.50
27258;DHT22;62045;49.986;8.672;2022-07-29T16:18:32;26.80;41.50
27258;DHT22;62045;49.986;8.672;2022-07-29T16:23:33;26.80;41.50
27258;DHT22;62045;49.986;8.672;2022-07-29T16:28:35;26.80;41.70
27258;DHT22;62045;49.986;8.672;2022-07-29T16:33:36;26.80;41.80
27258;DHT22;62045;49.986;8.672;2022-07-29T16:38:37;26.80;41.80
27258;DHT22;62045;49.986;8.672;2022-07-29T16:43:39;26.80;41.80
27258;DHT22;62045;49.986;8.672;2022-07-29T16:48:40;26.80;41.80
27258;DHT22;62045;49.986;8.672;2022-07-29T16:53:41;26.90;41.90
27258;DHT22;62045;49.986;8.672;2022-07-29T16:58:44;26.90;41.90
27258;DHT22;62045;49.986;8.672;2022-07-29T17:03:44;27.00;41.90
27258;DHT22;62045;49.986;8.672;2022-07-29T17:08:45;27.00;41.90
27258;DHT22;62045;49.986;8.672;2022-07-29T17:13:47;27.00;42.00
27258;DHT22;62045;49.986;8.672;2022-07-29T17:18:48;27.00;42.00
27258;DHT22;62045;49.986;8.672;2022-07-29T17:23:51;27.00;42.20
27258;DHT22;62045;49.986;8.672;2022-07-29T17:28:53;27.00;42.20
27258;DHT22;62045;49.986;8.672;2022-07-29T17:33:54;27.00;42.20
27258;DHT22;62045;49.986;8.672;2022-07-29T17:38:57;27.00;42.20
27258;DHT22;62045;49.986;8.672;2022-07-29T17:43:59;27.00;42.20
27258;DHT22;62045;49.986;8.672;2022-07-29T17:49:00;27.00;42.20
27258;DHT22;62045;49.986;8.672;2022-07-29T17:54:01;27.00;42.20
27258;DHT22;62045;49.986;8.672;2022-07-29T17:59:04;27.00;42.20
27258;DHT22;62045;49.986;8.672;2022-07-29T18:04:04;27.00;42.20
27258;DHT22;62045;49.986;8.672;2022-07-29T18:09:05;27.00;42.20
27258;DHT22;62045;49.986;8.672;2022-07-29T18:14:08;27.00;42.10
27258;DHT22;62045;49.986;8.672;2022-07-29T18:19:08;26.90;42.10
27258;DHT22;62045;49.986;8.672;2022-07-29T18:24:09;26.90;42.10
27258;DHT22;62045;49.986;8.672;2022-07-29T18:29:11;26.90;42.10
27258;DHT22;62045;49.986;8.672;2022-07-29T18:34:12;26.90;42.20
27258;DHT22;62045;49.986;8.672;2022-07-29T18:39:13;26.90;42.30
27258;DHT22;62045;49.986;8.672;2022-07-29T18:44:15;26.90;42.30
27258;DHT22;62045;49.986;8.672;2022-07-29T18:49:17;26.90;42.40
27258;DHT22;62045;49.986;8.672;2022-07-29T18:54:18;26.90;42.50
27258;DHT22;62045;49.986;8.672;2022-07-29T18:59:20;26.90;42.50
27258;DHT22;62045;49.986;8.672;2022-07-29T19:04:21;26.90;42.60
27258;DHT22;62045;49.986;8.672;2022-07-29T19:09:22;26.90;42.70
27258;DHT22;62045;49.986;8.672;2022-07-29T19:14:24;26.90;42.70
27258;DHT22;62045;49.986;8.672;2022-07-29T19:19:25;26.90;42.80
27258;DHT22;62045;49.986;8.672;2022-07-29T19:24:26;27.00;42.90
27258;DHT22;62045;49.986;8.672;2022-07-29T19:29:28;27.00;42.90
27258;DHT22;62045;49.986;8.672;2022-07-29T19:34:29;27.00;42.90
27258;DHT22;62045;49.986;8.672;2022-07-29T19:39:30;27.00;42.90
27258;DHT22;62045;49.986;8.672;2022-07-29T19:44:32;27.00;43.00
27258;DHT22;62045;49.986;8.672;2022-07-29T19:49:33;27.00;43.00
27258;DHT22;62045;49.986;8.672;2022-07-29T19:54:34;27.00;43.00
27258;DHT22;62045;49.986;8.672;2022-07-29T19:59:36;27.00;43.00
27258;DHT22;62045;49.986;8.672;2022-07-29T20:04:37;27.00;43.80
27258;DHT22;62045;49.986;8.672;2022-07-29T20:09:39;27.00;43.30
27258;DHT22;62045;49.986;8.672;2022-07-29T20:14:41;27.00;43.40
27258;DHT22;62045;49.986;8.672;2022-07-29T20:19:42;27.00;43.50
27258;DHT22;62045;49.986;8.672;2022-07-29T20:24:43;27.00;43.60
27258;DHT22;62045;49.986;8.672;2022-07-29T20:29:46;26.90;43.50
27258;DHT22;62045;49.986;8.672;2022-07-29T20:34:47;26.90;43.60
27258;DHT22;62045;49.986;8.672;2022-07-29T20:39:48;26.90;43.80
27258;DHT22;62045;49.986;8.672;2022-07-29T20:44:50;26.90;43.90
27258;DHT22;62045;49.986;8.672;2022-07-29T20:49:51;26.90;43.70
27258;DHT22;62045;49.986;8.672;2022-07-29T20:54:52;26.80;43.70
27258;DHT22;62045;49.986;8.672;2022-07-29T20:59:55;26.80;43.60
27258;DHT22;62045;49.986;8.672;2022-07-29T21:04:55;26.80;43.60
27258;DHT22;62045;49.986;8.672;2022-07-29T21:09:56;26.80;43.60
27258;DHT22;62045;49.986;8.672;2022-07-29T21:14:59;26.80;43.50
27258;DHT22;62045;49.986;8.672;2022-07-29T21:20:01;26.90;43.40
27258;DHT22;62045;49.986;8.672;2022-07-29T21:25:02;26.80;43.40
27258;DHT22;62045;49.986;8.672;2022-07-29T21:30:06;26.80;43.30
27258;DHT22;62045;49.986;8.672;2022-07-29T21:35:08;26.80;43.30
27258;DHT22;62045;49.986;8.672;2022-07-29T21:40:10;26.90;43.30
27258;DHT22;62045;49.986;8.672;2022-07-29T21:45:12;26.90;43.30
27258;DHT22;62045;49.986;8.672;2022-07-29T21:50:13;26.90;43.30
27258;DHT22;62045;49.986;8.672;2022-07-29T21:55:14;26.90;43.20
27258;DHT22;62045;49.986;8.672;2022-07-29T22:00:16;26.90;43.20
27258;DHT22;62045;49.986;8.672;2022-07-29T22:05:17;26.90;43.10
27258;DHT22;62045;49.986;8.672;2022-07-29T22:10:18;26.90;43.10
27258;DHT22;62045;49.986;8.672;2022-07-29T22:15:21;26.90;43.10
27258;DHT22;62045;49.986;8.672;2022-07-29T22:20:23;26.90;43.10
27258;DHT22;62045;49.986;8.672;2022-07-29T22:25:24;26.80;43.00
27258;DHT22;62045;49.986;8.672;2022-07-29T22:30:26;26.80;43.00
27258;DHT22;62045;49.986;8.672;2022-07-29T22:35:27;26.80;43.10
27258;DHT22;62045;49.986;8.672;2022-07-29T22:40:28;26.80;43.10
27258;DHT22;62045;49.986;8.672;2022-07-29T22:45:30;26.70;43.00
27258;DHT22;62045;49.986;8.672;2022-07-29T22:50:31;26.80;43.10
27258;DHT22;62045;49.986;8.672;2022-07-29T22:55:32;26.70;43.00
27258;DHT22;62045;49.986;8.672;2022-07-29T23:00:35;26.70;43.10
27258;DHT22;62045;49.986;8.672;2022-07-29T23:05:36;26.70;43.10
27258;DHT22;62045;49.986;8.672;2022-07-29T23:10:36;26.70;43.10
27258;DHT22;62045;49.986;8.672;2022-07-29T23:15:39;26.60;43.00
27258;DHT22;62045;49.986;8.672;2022-07-29T23:20:41;26.60;43.00
27258;DHT22;62045;49.986;8.672;2022-07-29T23:25:42;26.60;43.00
27258;DHT22;62045;49.986;8.672;2022-07-29T23:30:44;26.60;43.00
27258;DHT22;62045;49.986;8.672;2022-07-29T23:35:45;26.60;43.00
27258;DHT22;62045;49.986;8.672;2022-07-29T23:40:46;26.60;43.00
27258;DHT22;62045;49.986;8.672;2022-07-29T23:45:48;26.60;43.00
27258;DHT22;62045;49.986;8.672;2022-07-29T23:50:49;26.60;43.00
27258;DHT22;62045;49.986;8.672;2022-07-29T23:55:50;26.60;42.90
